Time;durP1;ratioP1;P1;durP2;ratioP2;P2;SDS_P1;SDS_P2;PMS_P1;PMS_P2;Temp;Humidity;BMP_temperature;BMP_pressure;BME280_temperature;BME280_humidity;BME280_pressure;Samples;Min_cycle;Max_cycle;Signal;HPM_P1;HPM_P2
2021/12/24 00:01:54;;;;;;;49.27;23.73;;;;;;;;;;5072274;28;20415;-57
2021/12/24 00:04:21;;;;;;;55.03;25.80;;;;;;;;;;5072298;28;20415;-57
2021/12/24 00:06:48;;;;;;;49.23;24.53;;;;;;;;;;5072450;28;20411;-54
2021/12/24 00:09:22;;;;;;;61.93;25.47;;;;;;;;;;5072780;28;20407;-55
2021/12/24 00:11:56;;;;;;;60.50;26.27;;;;;;;;;;5072694;28;20988;-56
2021/12/24 00:14:24;;;;;;;42.10;20.27;;;;;;;;;;5072152;28;20532;-56
2021/12/24 00:16:54;;;;;;;56.70;25.03;;;;;;;;;;5072603;28;20414;-57
2021/12/24 00:35:34;;;;;;;55.83;25.60;;;;;;;;;;5072664;28;20452;-56
2021/12/24 00:38:03;;;;;;;63.90;27.10;;;;;;;;;;5072461;28;20766;-57
2021/12/24 00:40:30;;;;;;;49.50;21.60;;;;;;;;;;5071384;28;20779;-55
2021/12/24 00:42:56;;;;;;;61.10;26.83;;;;;;;;;;5072506;28;20970;-56
2021/12/24 00:45:24;;;;;;;57.27;24.00;;;;;;;;;;5072480;28;20474;-59
2021/12/24 00:47:50;;;;;;;50.73;20.97;;;;;;;;;;5072588;28;20950;-56
2021/12/24 00:50:22;;;;;;;61.73;26.87;;;;;;;;;;5072448;28;20414;-56
2021/12/24 00:52:51;;;;;;;50.40;21.97;;;;;;;;;;5072348;28;20399;-59
2021/12/24 00:55:19;;;;;;;50.13;24.10;;;;;;;;;;5072329;28;20417;-55
2021/12/24 00:57:47;;;;;;;60.60;25.27;;;;;;;;;;5072556;28;20402;-56
2021/12/24 01:00:16;;;;;;;52.70;24.40;;;;;;;;;;5072157;28;20403;-56
2021/12/24 01:02:43;;;;;;;50.30;23.63;;;;;;;;;;5072243;28;20409;-56
2021/12/24 01:05:10;;;;;;;55.00;25.03;;;;;;;;;;5070974;28;20978;-57
2021/12/24 01:07:36;;;;;;;47.27;22.60;;;;;;;;;;5072363;28;20463;-57
2021/12/24 01:10:03;;;;;;;52.20;23.77;;;;;;;;;;5072342;28;20776;-60
2021/12/24 01:12:29;;;;;;;41.80;18.73;;;;;;;;;;5072201;28;20941;-56
2021/12/24 01:14:55;;;;;;;41.17;19.83;;;;;;;;;;5074884;28;20413;-56
2021/12/24 01:20:10;;;;;;;37.87;19.17;;;;;;;;;;5076064;28;20549;-56
2021/12/24 01:23:13;;;;;;;42.77;20.80;;;;;;;;;;5076366;28;20774;-56
2021/12/24 01:25:32;;;;;;;46.60;22.50;;;;;;;;;;5075805;28;20519;-55
2021/12/24 01:38:52;;;;;;;36.00;18.30;;;;;;;;;;5075986;28;20859;-57
2021/12/24 01:42:41;;;;;;;35.83;19.17;;;;;;;;;;5075688;28;20409;-57
2021/12/24 01:44:08;;;;;;;43.93;21.60;;;;;;;;;;5075369;28;20407;-57
2021/12/24 01:46:34;;;;;;;43.60;19.90;;;;;;;;;;5075536;28;20478;-58
2021/12/24 01:49:00;;;;;;;43.63;21.13;;;;;;;;;;5075448;28;20914;-55
2021/12/24 01:51:26;;;;;;;33.40;18.20;;;;;;;;;;5075570;28;20915;-57
2021/12/24 01:53:53;;;;;;;36.50;19.20;;;;;;;;;;5075548;28;20409;-59
2021/12/24 01:56:19;;;;;;;34.97;19.43;;;;;;;;;;5074114;28;20419;-56
2021/12/24 01:58:45;;;;;;;26.17;13.33;;;;;;;;;;5075167;28;20427;-56
2021/12/24 02:01:11;;;;;;;34.93;18.97;;;;;;;;;;5075223;28;20449;-61
2021/12/24 02:03:38;;;;;;;29.50;17.33;;;;;;;;;;5074950;28;20895;-61
2021/12/24 02:06:04;;;;;;;30.00;16.30;;;;;;;;;;5074909;28;20466;-58
2021/12/24 02:08:30;;;;;;;28.70;16.27;;;;;;;;;;5075065;28;20915;-56
2021/12/24 02:10:56;;;;;;;26.27;15.20;;;;;;;;;;5075234;28;20414;-58
2021/12/24 02:13:22;;;;;;;25.10;13.53;;;;;;;;;;5074835;28;20407;-57
2021/12/24 02:29:23;;;;;;;26.17;16.83;;;;;;;;;;5074931;28;20464;-57
2021/12/24 02:31:49;;;;;;;22.00;14.47;;;;;;;;;;5074751;28;20413;-57
2021/12/24 02:34:15;;;;;;;24.00;16.33;;;;;;;;;;5074780;28;20845;-57
2021/12/24 02:36:41;;;;;;;19.03;13.40;;;;;;;;;;5073212;28;20411;-56
2021/12/24 02:39:07;;;;;;;24.63;15.60;;;;;;;;;;5074507;28;20418;-57
2021/12/24 02:41:33;;;;;;;27.60;17.60;;;;;;;;;;5074576;28;20504;-57
2021/12/24 02:43:59;;;;;;;21.43;13.50;;;;;;;;;;5074507;28;20911;-58
2021/12/24 02:46:35;;;;;;;21.57;13.50;;;;;;;;;;5074537;28;20477;-56
2021/12/24 02:49:14;;;;;;;19.83;12.90;;;;;;;;;;5074284;28;20487;-57
2021/12/24 02:54:39;;;;;;;26.40;16.50;;;;;;;;;;5062115;28;20413;-56
2021/12/24 02:57:09;;;;;;;26.47;17.23;;;;;;;;;;5074057;28;20391;-58
2021/12/24 02:59:46;;;;;;;27.53;17.40;;;;;;;;;;5072800;28;20753;-56
2021/12/24 03:02:12;;;;;;;29.53;17.97;;;;;;;;;;5073863;28;20468;-56
2021/12/24 03:04:38;;;;;;;28.70;17.90;;;;;;;;;;5073817;28;20821;-57
2021/12/24 03:07:05;;;;;;;20.73;13.90;;;;;;;;;;5073969;28;20415;-56
2021/12/24 03:09:31;;;;;;;29.07;17.43;;;;;;;;;;5074027;28;20749;-56
2021/12/24 03:11:58;;;;;;;21.33;12.40;;;;;;;;;;5072732;28;20415;-56
2021/12/24 03:14:24;;;;;;;33.43;18.83;;;;;;;;;;5072579;28;20411;-57
2021/12/24 03:16:57;;;;;;;25.17;16.53;;;;;;;;;;5073655;28;20411;-56
2021/12/24 03:19:27;;;;;;;26.03;16.00;;;;;;;;;;5073723;28;20465;-56
2021/12/24 03:21:58;;;;;;;25.50;15.37;;;;;;;;;;5074070;28;20779;-56
2021/12/24 03:26:50;;;;;;;26.60;16.93;;;;;;;;;;5073662;28;21026;-57
2021/12/24 03:29:17;;;;;;;23.97;15.10;;;;;;;;;;5073447;28;20403;-57
2021/12/24 03:31:44;;;;;;;28.90;17.87;;;;;;;;;;5073296;28;20415;-56
2021/12/24 03:34:13;;;;;;;26.63;15.50;;;;;;;;;;5073350;28;20395;-57
2021/12/24 03:36:39;;;;;;;29.97;16.27;;;;;;;;;;5071366;28;20414;-56
2021/12/24 03:39:06;;;;;;;29.73;17.53;;;;;;;;;;5073426;28;20776;-56
2021/12/24 03:41:32;;;;;;;30.17;18.93;;;;;;;;;;5073130;28;20431;-57
2021/12/24 03:43:58;;;;;;;29.03;18.20;;;;;;;;;;5072186;28;20407;-57
2021/12/24 03:46:37;;;;;;;27.07;18.20;;;;;;;;;;5073423;28;20884;-57
2021/12/24 03:49:08;;;;;;;16.53;11.60;;;;;;;;;;5073103;28;20405;-56
2021/12/24 03:56:48;;;;;;;30.10;19.30;;;;;;;;;;5073255;28;20397;-57
2021/12/24 03:59:14;;;;;;;30.43;19.03;;;;;;;;;;5072988;28;20445;-56
2021/12/24 04:01:41;;;;;;;27.10;16.60;;;;;;;;;;5073000;28;20411;-58
2021/12/24 04:04:07;;;;;;;29.30;17.33;;;;;;;;;;5071649;28;20430;-56
2021/12/24 04:06:33;;;;;;;28.60;16.97;;;;;;;;;;5072708;28;20468;-56
2021/12/24 04:08:59;;;;;;;29.20;16.63;;;;;;;;;;5072911;28;20490;-56
2021/12/24 04:11:25;;;;;;;25.10;16.60;;;;;;;;;;5072836;28;20438;-56
2021/12/24 04:13:52;;;;;;;25.93;16.30;;;;;;;;;;5072826;28;20407;-58
2021/12/24 04:16:18;;;;;;;29.17;17.23;;;;;;;;;;5072829;28;20892;-58
2021/12/24 04:26:42;;;;;;;17.73;12.53;;;;;;;;;;5072487;28;20511;-57
2021/12/24 04:29:08;;;;;;;22.67;14.43;;;;;;;;;;5071169;28;21039;-56
2021/12/24 04:32:06;;;;;;;23.13;14.40;;;;;;;;;;5072293;28;20457;-57
2021/12/24 04:34:27;;;;;;;19.70;11.23;;;;;;;;;;5072278;28;20403;-57
2021/12/24 05:01:14;;;;;;;25.33;15.30;;;;;;;;;;5075033;28;20448;-55
2021/12/24 05:02:03;;;;;;;27.57;14.53;;;;;;;;;;5076358;28;20501;-54
2021/12/24 05:04:33;;;;;;;21.27;13.37;;;;;;;;;;5076426;28;20453;-54
2021/12/24 05:07:10;;;;;;;34.30;15.57;;;;;;;;;;5076237;28;20981;-54
2021/12/24 05:09:39;;;;;;;34.50;17.57;;;;;;;;;;5076313;28;20414;-54
2021/12/24 05:12:06;;;;;;;31.63;17.00;;;;;;;;;;5076404;28;20407;-56
2021/12/24 05:14:32;;;;;;;30.53;18.53;;;;;;;;;;5076150;28;20421;-55
2021/12/24 05:17:27;;;;;;;28.00;17.17;;;;;;;;;;5076301;28;20460;-59
2021/12/24 05:22:38;;;;;;;37.10;20.50;;;;;;;;;;5076000;28;20528;-56
2021/12/24 05:25:04;;;;;;;36.60;20.57;;;;;;;;;;5075873;28;20529;-57
2021/12/24 05:27:30;;;;;;;39.23;22.63;;;;;;;;;;5075851;28;20414;-58
2021/12/24 05:29:57;;;;;;;38.40;20.70;;;;;;;;;;5075984;28;20425;-60
2021/12/24 05:32:23;;;;;;;37.57;19.90;;;;;;;;;;5075850;28;20532;-60
2021/12/24 05:34:49;;;;;;;37.03;21.30;;;;;;;;;;5075768;28;20469;-59
2021/12/24 05:37:14;;;;;;;39.03;20.83;;;;;;;;;;5075758;28;20416;-57
2021/12/24 05:39:40;;;;;;;44.23;22.00;;;;;;;;;;5075526;28;20899;-60
2021/12/24 05:42:07;;;;;;;39.17;21.80;;;;;;;;;;5075614;28;20407;-58
2021/12/24 05:44:33;;;;;;;34.87;21.03;;;;;;;;;;5075462;28;20395;-56
2021/12/24 05:47:00;;;;;;;43.47;23.70;;;;;;;;;;5075822;28;20518;-61
2021/12/24 05:49:26;;;;;;;40.53;22.80;;;;;;;;;;5075595;28;20411;-60
2021/12/24 05:51:52;;;;;;;42.43;21.93;;;;;;;;;;5075342;28;20560;-59
2021/12/24 05:54:18;;;;;;;35.60;20.30;;;;;;;;;;5075332;28;20414;-60
2021/12/24 05:56:45;;;;;;;34.93;19.37;;;;;;;;;;5075757;28;20415;-57
2021/12/24 05:59:12;;;;;;;37.80;22.27;;;;;;;;;;5074623;28;20922;-64
2021/12/24 06:01:38;;;;;;;40.07;21.70;;;;;;;;;;5075080;28;20430;-58
2021/12/24 06:04:04;;;;;;;35.90;20.87;;;;;;;;;;5075067;28;20500;-56
2021/12/24 06:06:30;;;;;;;46.13;21.93;;;;;;;;;;5075379;28;20523;-60
2021/12/24 06:08:56;;;;;;;37.57;21.70;;;;;;;;;;5075163;28;20407;-56
2021/12/24 06:11:23;;;;;;;45.17;21.43;;;;;;;;;;5075038;28;20406;-57
2021/12/24 06:13:53;;;;;;;36.80;20.17;;;;;;;;;;5074906;28;20456;-60
2021/12/24 06:16:19;;;;;;;36.07;19.33;;;;;;;;;;5075154;28;20548;-56
2021/12/24 06:18:45;;;;;;;39.60;20.83;;;;;;;;;;5073527;28;20414;-57
2021/12/24 06:21:11;;;;;;;35.43;21.17;;;;;;;;;;5074624;28;20455;-59
2021/12/24 06:23:38;;;;;;;33.57;20.57;;;;;;;;;;5074767;28;20456;-60
2021/12/24 06:26:05;;;;;;;31.30;18.73;;;;;;;;;;5074464;28;20501;-61
2021/12/24 06:28:31;;;;;;;30.70;19.47;;;;;;;;;;5074976;28;20407;-57
2021/12/24 06:30:57;;;;;;;32.73;17.90;;;;;;;;;;5073625;28;20427;-58
2021/12/24 06:33:23;;;;;;;28.00;17.00;;;;;;;;;;5073586;28;20414;-56
2021/12/24 06:35:51;;;;;;;34.03;18.40;;;;;;;;;;5074551;28;20441;-57
2021/12/24 06:38:17;;;;;;;31.83;19.00;;;;;;;;;;5073868;28;20417;-59
2021/12/24 06:40:43;;;;;;;32.17;18.40;;;;;;;;;;5072634;28;21012;-57
2021/12/24 06:43:09;;;;;;;29.77;18.43;;;;;;;;;;5073749;28;20423;-55
2021/12/24 06:45:35;;;;;;;28.17;18.10;;;;;;;;;;5074442;28;20474;-56
2021/12/24 06:48:01;;;;;;;29.77;18.80;;;;;;;;;;5074377;28;20955;-57
2021/12/24 06:50:27;;;;;;;22.97;14.40;;;;;;;;;;5074461;28;20421;-58
2021/12/24 06:52:54;;;;;;;24.87;17.10;;;;;;;;;;5074299;28;20460;-62
2021/12/24 06:55:21;;;;;;;24.43;14.63;;;;;;;;;;5074162;28;20446;-58
2021/12/24 06:57:48;;;;;;;23.57;14.00;;;;;;;;;;5074163;28;20416;-64
2021/12/24 07:00:16;;;;;;;21.50;14.53;;;;;;;;;;5074332;28;20415;-59
2021/12/24 07:02:42;;;;;;;22.30;15.10;;;;;;;;;;5073883;28;20460;-57
2021/12/24 07:05:08;;;;;;;18.77;12.57;;;;;;;;;;5074093;28;20815;-59
2021/12/24 07:07:34;;;;;;;17.83;12.50;;;;;;;;;;5074043;28;20789;-60
2021/12/24 07:10:00;;;;;;;16.93;12.63;;;;;;;;;;5074102;28;20406;-63
2021/12/24 07:12:26;;;;;;;17.43;13.23;;;;;;;;;;5073078;28;20892;-61
2021/12/24 07:14:52;;;;;;;19.67;14.43;;;;;;;;;;5073696;28;20813;-61
2021/12/24 07:17:18;;;;;;;20.30;14.47;;;;;;;;;;5073600;28;20411;-59
2021/12/24 07:19:44;;;;;;;16.90;11.47;;;;;;;;;;5073601;28;20481;-59
2021/12/24 07:22:12;;;;;;;9.13;8.23;;;;;;;;;;5073745;28;20791;-54
2021/12/24 07:24:39;;;;;;;15.73;11.43;;;;;;;;;;5073651;28;20499;-55
2021/12/24 07:27:05;;;;;;;14.00;10.83;;;;;;;;;;5073697;28;20429;-57
2021/12/24 07:29:31;;;;;;;12.43;9.00;;;;;;;;;;5073606;28;20442;-56
2021/12/24 07:31:57;;;;;;;14.20;9.93;;;;;;;;;;5073629;28;20426;-55
2021/12/24 07:34:23;;;;;;;18.37;11.60;;;;;;;;;;5073564;28;20411;-55
2021/12/24 07:36:51;;;;;;;11.23;9.57;;;;;;;;;;5073352;28;20426;-56
2021/12/24 07:39:17;;;;;;;14.43;11.30;;;;;;;;;;5073283;28;20430;-57
2021/12/24 07:41:43;;;;;;;12.20;10.90;;;;;;;;;;5072997;28;20452;-56
2021/12/24 07:44:09;;;;;;;13.73;10.23;;;;;;;;;;5073021;28;20518;-54
2021/12/24 07:46:42;;;;;;;11.73;10.23;;;;;;;;;;5073002;28;20897;-55
2021/12/24 07:49:29;;;;;;;10.30;9.17;;;;;;;;;;5073358;28;20410;-55
2021/12/24 07:54:28;;;;;;;11.20;10.07;;;;;;;;;;5073396;28;20434;-61
2021/12/24 07:56:54;;;;;;;10.43;9.33;;;;;;;;;;5073429;28;20764;-58
2021/12/24 07:59:20;;;;;;;9.50;8.50;;;;;;;;;;5071626;28;20442;-56
2021/12/24 08:01:47;;;;;;;12.13;8.97;;;;;;;;;;5073125;28;20399;-57
2021/12/24 08:04:14;;;;;;;11.93;8.83;;;;;;;;;;5073204;28;20745;-62
2021/12/24 08:06:40;;;;;;;8.33;6.73;;;;;;;;;;5072915;28;20535;-56
2021/12/24 08:09:07;;;;;;;8.87;7.07;;;;;;;;;;5071692;28;20406;-62
2021/12/24 08:11:33;;;;;;;7.63;6.83;;;;;;;;;;5072719;28;20953;-61
2021/12/24 08:14:01;;;;;;;11.07;9.30;;;;;;;;;;5072885;28;20406;-60
2021/12/24 08:16:28;;;;;;;11.37;9.30;;;;;;;;;;5073066;28;20501;-58
2021/12/24 08:18:54;;;;;;;10.40;7.00;;;;;;;;;;5072962;28;20415;-62
2021/12/24 08:21:20;;;;;;;9.13;8.17;;;;;;;;;;5072471;28;20489;-56
2021/12/24 08:23:47;;;;;;;9.33;8.40;;;;;;;;;;5072364;28;20434;-61
2021/12/24 08:26:13;;;;;;;8.20;7.47;;;;;;;;;;5072619;28;20466;-61
2021/12/24 08:28:39;;;;;;;9.20;8.30;;;;;;;;;;5072562;28;20410;-59
2021/12/24 08:31:05;;;;;;;9.30;8.40;;;;;;;;;;5072375;28;20468;-63
2021/12/24 08:33:34;;;;;;;9.27;8.37;;;;;;;;;;5072856;28;20410;-56
2021/12/24 08:36:00;;;;;;;8.80;7.60;;;;;;;;;;5072617;28;20423;-55
2021/12/24 08:38:26;;;;;;;9.13;7.47;;;;;;;;;;5072807;28;20417;-56
2021/12/24 08:40:52;;;;;;;6.87;6.27;;;;;;;;;;5072651;28;20411;-56
2021/12/24 08:43:18;;;;;;;9.10;7.17;;;;;;;;;;5072541;28;20555;-56
2021/12/24 08:45:44;;;;;;;7.47;6.77;;;;;;;;;;5072566;28;20493;-56
2021/12/24 08:48:10;;;;;;;10.20;7.93;;;;;;;;;;5071194;28;20414;-56
2021/12/24 08:50:36;;;;;;;8.00;6.67;;;;;;;;;;5072556;28;20421;-61
2021/12/24 08:53:02;;;;;;;10.63;6.97;;;;;;;;;;5072701;28;20411;-59
2021/12/24 08:55:28;;;;;;;7.60;6.90;;;;;;;;;;5072542;28;20421;-56
2021/12/24 08:57:54;;;;;;;6.40;5.87;;;;;;;;;;5072862;28;20415;-57
2021/12/24 09:00:21;;;;;;;6.50;5.97;;;;;;;;;;5072458;28;20403;-55
2021/12/24 09:02:47;;;;;;;7.20;6.60;;;;;;;;;;5072558;28;20425;-56
2021/12/24 09:05:13;;;;;;;8.60;7.10;;;;;;;;;;5070899;28;20500;-56
2021/12/24 09:07:40;;;;;;;5.83;5.33;;;;;;;;;;5072607;28;20469;-56
2021/12/24 09:10:10;;;;;;;6.10;5.60;;;;;;;;;;5071346;28;20422;-58
2021/12/24 09:12:36;;;;;;;7.33;6.73;;;;;;;;;;5072086;28;20557;-56
2021/12/24 09:15:03;;;;;;;6.57;5.93;;;;;;;;;;5072279;28;20410;-56
2021/12/24 09:17:30;;;;;;;7.53;6.83;;;;;;;;;;5072348;28;20467;-56
2021/12/24 09:19:57;;;;;;;6.83;6.23;;;;;;;;;;5072015;28;20457;-56
2021/12/24 09:22:29;;;;;;;6.60;5.70;;;;;;;;;;5072669;28;20417;-57
2021/12/24 09:24:56;;;;;;;5.57;5.17;;;;;;;;;;5072538;28;20417;-57
2021/12/24 09:27:23;;;;;;;6.27;5.77;;;;;;;;;;5070799;28;20477;-55
2021/12/24 09:29:49;;;;;;;6.10;5.60;;;;;;;;;;5072024;28;20398;-59
2021/12/24 09:32:15;;;;;;;8.40;5.57;;;;;;;;;;5071873;28;20493;-57
2021/12/24 09:34:41;;;;;;;7.10;6.50;;;;;;;;;;5072622;28;20816;-56
2021/12/24 09:37:08;;;;;;;6.27;5.67;;;;;;;;;;5075825;28;20414;-56
2021/12/24 09:39:34;;;;;;;6.50;5.83;;;;;;;;;;5075697;28;20409;-55
2021/12/24 09:42:01;;;;;;;7.17;6.57;;;;;;;;;;5075678;28;20419;-56
2021/12/24 09:44:27;;;;;;;5.60;5.20;;;;;;;;;;5075711;28;20415;-55
2021/12/24 09:46:53;;;;;;;6.97;6.37;;;;;;;;;;5075357;28;20465;-56
2021/12/24 09:49:20;;;;;;;5.80;5.40;;;;;;;;;;5075664;28;20399;-56
2021/12/24 09:51:48;;;;;;;5.77;5.37;;;;;;;;;;5075512;28;20938;-58
2021/12/24 09:54:15;;;;;;;5.27;4.97;;;;;;;;;;5074217;28;20410;-56
2021/12/24 09:56:42;;;;;;;8.60;6.40;;;;;;;;;;5073992;28;20930;-57
2021/12/24 09:59:08;;;;;;;5.17;4.87;;;;;;;;;;5075206;28;20403;-59
2021/12/24 10:01:39;;;;;;;5.83;5.33;;;;;;;;;;5073805;28;20421;-56
2021/12/24 10:04:10;;;;;;;5.43;5.03;;;;;;;;;;5075000;28;20411;-56
2021/12/24 10:06:37;;;;;;;5.37;5.07;;;;;;;;;;5074867;28;20462;-57
2021/12/24 10:09:06;;;;;;;6.50;5.47;;;;;;;;;;5075196;28;20405;-59
2021/12/24 10:11:46;;;;;;;7.23;6.30;;;;;;;;;;5073723;28;20462;-59
2021/12/24 10:14:12;;;;;;;5.37;5.03;;;;;;;;;;5075196;28;20419;-59
2021/12/24 10:16:41;;;;;;;4.80;4.50;;;;;;;;;;5074881;28;20410;-59
2021/12/24 10:19:08;;;;;;;5.87;5.47;;;;;;;;;;5073387;28;20406;-57
2021/12/24 10:21:35;;;;;;;4.97;4.67;;;;;;;;;;5074986;28;20411;-58
2021/12/24 10:24:02;;;;;;;5.03;4.73;;;;;;;;;;5074997;28;20403;-57
2021/12/24 10:26:30;;;;;;;6.60;6.00;;;;;;;;;;5074551;28;20520;-57
2021/12/24 10:29:04;;;;;;;5.73;5.23;;;;;;;;;;5074655;28;20403;-57
2021/12/24 10:31:33;;;;;;;6.00;5.50;;;;;;;;;;5074515;28;20413;-57
2021/12/24 10:34:05;;;;;;;5.43;5.03;;;;;;;;;;5074746;28;20509;-56
2021/12/24 10:36:31;;;;;;;6.73;4.60;;;;;;;;;;5074495;28;20422;-57
2021/12/24 10:38:57;;;;;;;5.80;5.50;;;;;;;;;;5074768;28;20407;-56
2021/12/24 10:41:25;;;;;;;5.50;5.10;;;;;;;;;;5074589;28;20950;-58
2021/12/24 10:43:52;;;;;;;6.33;5.83;;;;;;;;;;5074553;28;20406;-56
2021/12/24 10:46:22;;;;;;;6.53;6.03;;;;;;;;;;5073913;28;20466;-59
2021/12/24 10:49:03;;;;;;;5.90;5.50;;;;;;;;;;5074150;28;20402;-55
2021/12/24 10:51:54;;;;;;;6.30;5.90;;;;;;;;;;5074215;28;20438;-57
2021/12/24 10:54:18;;;;;;;5.33;4.93;;;;;;;;;;5073672;28;20469;-55
2021/12/24 10:56:44;;;;;;;6.40;6.00;;;;;;;;;;5073939;28;20896;-57
2021/12/24 10:59:12;;;;;;;6.27;5.77;;;;;;;;;;5074026;28;20433;-60
2021/12/24 11:01:38;;;;;;;5.70;5.20;;;;;;;;;;5072642;28;20476;-57
2021/12/24 11:04:04;;;;;;;6.23;5.83;;;;;;;;;;5073921;28;20429;-55
2021/12/24 11:06:31;;;;;;;6.13;5.73;;;;;;;;;;5074175;28;20924;-56
2021/12/24 11:08:58;;;;;;;6.50;5.90;;;;;;;;;;5074460;28;20540;-57
2021/12/24 11:11:24;;;;;;;5.87;5.43;;;;;;;;;;5074053;28;20406;-55
2021/12/24 11:13:50;;;;;;;6.83;6.23;;;;;;;;;;5073732;28;20498;-56
2021/12/24 11:16:20;;;;;;;8.00;5.70;;;;;;;;;;5073991;28;20398;-57
2021/12/24 11:18:54;;;;;;;6.97;5.40;;;;;;;;;;5073626;28;20460;-57
2021/12/24 11:21:21;;;;;;;5.50;5.00;;;;;;;;;;5073388;28;20443;-56
2021/12/24 11:23:47;;;;;;;6.37;5.87;;;;;;;;;;5073864;28;20818;-57
2021/12/24 11:26:15;;;;;;;5.47;4.90;;;;;;;;;;5072301;28;20892;-55
2021/12/24 11:28:42;;;;;;;7.00;6.30;;;;;;;;;;5073347;28;20411;-56
2021/12/24 11:31:12;;;;;;;5.70;5.13;;;;;;;;;;5072497;28;20419;-56
2021/12/24 11:33:39;;;;;;;6.53;5.93;;;;;;;;;;5073714;28;20476;-56
2021/12/24 11:36:07;;;;;;;7.00;6.30;;;;;;;;;;5073759;28;20411;-59
2021/12/24 11:38:41;;;;;;;5.93;5.47;;;;;;;;;;5074201;28;20442;-57
2021/12/24 11:41:10;;;;;;;5.70;5.30;;;;;;;;;;5073486;28;20415;-57
2021/12/24 11:43:38;;;;;;;5.83;4.90;;;;;;;;;;5073267;28;20414;-56
2021/12/24 11:46:05;;;;;;;5.70;5.30;;;;;;;;;;5073525;28;20466;-56
2021/12/24 11:48:32;;;;;;;6.70;6.20;;;;;;;;;;5073344;28;20429;-56
2021/12/24 11:51:00;;;;;;;6.60;6.00;;;;;;;;;;5073465;28;20832;-56
2021/12/24 11:53:27;;;;;;;7.10;6.50;;;;;;;;;;5073458;28;20443;-59
2021/12/24 11:55:53;;;;;;;7.00;5.97;;;;;;;;;;5073246;28;20418;-56
2021/12/24 11:58:20;;;;;;;7.77;4.80;;;;;;;;;;5072463;28;20403;-57
2021/12/24 12:00:48;;;;;;;7.90;6.63;;;;;;;;;;5073072;28;20407;-56
2021/12/24 12:03:31;;;;;;;7.27;6.57;;;;;;;;;;5073272;28;20418;-58
2021/12/24 12:05:57;;;;;;;7.07;6.40;;;;;;;;;;5073066;28;20466;-58
2021/12/24 12:08:26;;;;;;;6.83;6.00;;;;;;;;;;5071654;28;20413;-56
2021/12/24 12:10:53;;;;;;;7.63;6.87;;;;;;;;;;5073149;28;20418;-58
2021/12/24 12:13:37;;;;;;;6.77;5.83;;;;;;;;;;5073118;28;20410;-62
2021/12/24 12:16:04;;;;;;;7.17;6.27;;;;;;;;;;5072853;28;20425;-54
2021/12/24 12:18:33;;;;;;;6.00;5.50;;;;;;;;;;5072780;28;20410;-54
2021/12/24 12:21:09;;;;;;;7.40;6.70;;;;;;;;;;5072603;28;20505;-55
2021/12/24 12:26:35;;;;;;;7.63;6.80;;;;;;;;;;5073141;28;20462;-54
2021/12/24 12:29:21;;;;;;;11.37;7.37;;;;;;;;;;5072795;28;20535;-54
2021/12/24 12:31:48;;;;;;;7.43;6.77;;;;;;;;;;5072193;28;20417;-54
2021/12/24 12:34:33;;;;;;;7.20;6.53;;;;;;;;;;5072488;28;20523;-60
2021/12/24 12:37:18;;;;;;;7.50;6.90;;;;;;;;;;5072843;28;20688;-55
2021/12/24 12:39:45;;;;;;;7.07;6.33;;;;;;;;;;5072719;28;20490;-56
2021/12/24 12:42:13;;;;;;;7.77;7.07;;;;;;;;;;5072860;28;20402;-63
2021/12/24 12:44:45;;;;;;;5.87;5.37;;;;;;;;;;5071427;28;20795;-58
2021/12/24 12:47:14;;;;;;;7.93;6.80;;;;;;;;;;5071302;28;20476;-56
2021/12/24 12:49:41;;;;;;;10.43;6.87;;;;;;;;;;5072660;28;20411;-59
2021/12/24 12:52:11;;;;;;;8.80;7.67;;;;;;;;;;5072453;28;20740;-56
2021/12/24 12:54:41;;;;;;;7.50;6.70;;;;;;;;;;5072508;28;20919;-57
2021/12/24 12:57:14;;;;;;;7.90;7.10;;;;;;;;;;5072732;28;20415;-57
2021/12/24 12:59:41;;;;;;;8.50;6.57;;;;;;;;;;5072417;28;20414;-58
2021/12/24 13:02:07;;;;;;;12.00;7.47;;;;;;;;;;5072478;28;20398;-58
2021/12/24 13:04:34;;;;;;;10.97;8.10;;;;;;;;;;5072694;28;20498;-60
2021/12/24 13:07:00;;;;;;;8.27;7.37;;;;;;;;;;5072355;28;20506;-60
2021/12/24 13:09:33;;;;;;;8.17;6.93;;;;;;;;;;5072956;28;20398;-58
2021/12/24 13:12:00;;;;;;;8.10;6.20;;;;;;;;;;5076300;28;20463;-59
2021/12/24 13:14:27;;;;;;;8.67;7.10;;;;;;;;;;5076418;28;20499;-56
2021/12/24 13:22:32;;;;;;;9.20;7.63;;;;;;;;;;5076533;28;20410;-60
2021/12/24 13:24:59;;;;;;;8.53;6.97;;;;;;;;;;5074923;28;20406;-58
2021/12/24 13:27:31;;;;;;;9.13;7.33;;;;;;;;;;5076311;28;20779;-58
2021/12/24 13:30:05;;;;;;;8.70;7.73;;;;;;;;;;5076211;28;20406;-57
2021/12/24 13:32:31;;;;;;;8.90;8.00;;;;;;;;;;5075837;28;20421;-59
2021/12/24 13:34:57;;;;;;;7.13;6.27;;;;;;;;;;5076121;28;20410;-57
2021/12/24 13:37:30;;;;;;;8.43;7.53;;;;;;;;;;5076010;28;20406;-57
2021/12/24 13:39:56;;;;;;;8.90;7.03;;;;;;;;;;5076024;28;20407;-59
2021/12/24 13:42:22;;;;;;;9.57;7.00;;;;;;;;;;5075677;28;20502;-54
2021/12/24 13:44:49;;;;;;;11.57;7.10;;;;;;;;;;5074360;28;20418;-59
2021/12/24 13:47:33;;;;;;;7.70;7.00;;;;;;;;;;5074227;28;20811;-56
2021/12/24 13:55:20;;;;;;;8.80;6.63;;;;;;;;;;5075765;28;20992;-60
2021/12/24 13:57:53;;;;;;;7.73;6.60;;;;;;;;;;5073915;28;20433;-60
2021/12/24 14:00:20;;;;;;;7.40;6.70;;;;;;;;;;5075321;28;20926;-61
2021/12/24 14:02:57;;;;;;;7.27;6.57;;;;;;;;;;5075505;28;20910;-59
2021/12/24 14:05:23;;;;;;;9.13;7.10;;;;;;;;;;5075099;28;20457;-59
2021/12/24 14:08:04;;;;;;;9.80;7.73;;;;;;;;;;5075189;28;20938;-58
2021/12/24 14:10:30;;;;;;;10.30;7.73;;;;;;;;;;5075134;28;20407;-57
2021/12/24 14:13:04;;;;;;;7.13;6.53;;;;;;;;;;5073920;28;20431;-56
2021/12/24 14:15:31;;;;;;;8.80;8.00;;;;;;;;;;5075324;28;20813;-54
2021/12/24 14:18:19;;;;;;;10.83;6.97;;;;;;;;;;5075285;28;20419;-59
2021/12/24 14:23:34;;;;;;;12.10;8.10;;;;;;;;;;5064645;28;20407;-54
2021/12/24 14:26:02;;;;;;;8.60;7.13;;;;;;;;;;5074922;28;20551;-56
2021/12/24 14:28:27;;;;;;;9.87;8.30;;;;;;;;;;5073645;28;20551;-54
2021/12/24 14:31:01;;;;;;;10.33;8.27;;;;;;;;;;5073518;28;20419;-54
2021/12/24 14:33:27;;;;;;;8.53;6.77;;;;;;;;;;5074758;28;20395;-54
2021/12/24 14:35:53;;;;;;;11.90;8.00;;;;;;;;;;5074892;28;20817;-56
2021/12/24 14:38:23;;;;;;;13.57;8.30;;;;;;;;;;5074396;28;20399;-55
2021/12/24 14:40:59;;;;;;;13.90;8.77;;;;;;;;;;5074367;28;20935;-55
2021/12/24 14:43:26;;;;;;;11.73;8.40;;;;;;;;;;5074505;28;20862;-56
2021/12/24 14:45:53;;;;;;;9.47;8.17;;;;;;;;;;5074293;28;20473;-55
2021/12/24 14:48:21;;;;;;;15.87;9.30;;;;;;;;;;5074304;28;20414;-54
2021/12/24 14:50:53;;;;;;;13.20;8.13;;;;;;;;;;5074522;28;20494;-56
2021/12/24 14:53:19;;;;;;;15.83;9.40;;;;;;;;;;5074183;28;20407;-54
2021/12/24 14:55:46;;;;;;;8.23;7.10;;;;;;;;;;5074391;28;20456;-56
2021/12/24 14:58:13;;;;;;;10.50;8.30;;;;;;;;;;5074160;28;20406;-55
2021/12/24 15:00:41;;;;;;;11.37;8.40;;;;;;;;;;5074182;28;20896;-56
2021/12/24 15:03:18;;;;;;;13.57;8.33;;;;;;;;;;5074128;28;20410;-55
2021/12/24 15:05:46;;;;;;;15.87;8.57;;;;;;;;;;5074080;28;20461;-58
2021/12/24 15:08:17;;;;;;;13.57;9.13;;;;;;;;;;5072676;28;20425;-56
2021/12/24 15:10:57;;;;;;;12.47;7.60;;;;;;;;;;5073814;28;20413;-58
2021/12/24 15:13:25;;;;;;;15.10;9.00;;;;;;;;;;5072802;28;20465;-53
2021/12/24 15:15:51;;;;;;;17.83;9.60;;;;;;;;;;5074074;28;20407;-59
2021/12/24 15:18:18;;;;;;;12.40;9.10;;;;;;;;;;5073796;28;20502;-56
2021/12/24 15:20:44;;;;;;;13.53;8.90;;;;;;;;;;5073511;28;20455;-56
2021/12/24 15:23:10;;;;;;;8.90;7.97;;;;;;;;;;5073330;28;20415;-57
2021/12/24 15:25:37;;;;;;;13.10;8.70;;;;;;;;;;5073610;28;20494;-56
2021/12/24 15:28:09;;;;;;;7.27;6.53;;;;;;;;;;5073662;28;21009;-57
2021/12/24 15:30:36;;;;;;;5.37;4.60;;;;;;;;;;5073818;28;20863;-54
2021/12/24 15:33:03;;;;;;;6.70;5.90;;;;;;;;;;5072847;28;20814;-54
2021/12/24 15:35:29;;;;;;;4.53;4.10;;;;;;;;;;5073450;28;20435;-55
2021/12/24 15:37:56;;;;;;;5.00;4.60;;;;;;;;;;5073781;28;20423;-52
2021/12/24 15:40:24;;;;;;;5.07;4.67;;;;;;;;;;5073282;28;20422;-53
2021/12/24 15:42:50;;;;;;;4.40;4.10;;;;;;;;;;5073213;28;20419;-54
2021/12/24 15:45:17;;;;;;;4.43;4.23;;;;;;;;;;5073133;28;20807;-54
2021/12/24 15:47:43;;;;;;;7.93;4.73;;;;;;;;;;5072987;28;20450;-55
2021/12/24 15:50:09;;;;;;;6.07;5.47;;;;;;;;;;5073158;28;20411;-53
2021/12/24 15:52:35;;;;;;;3.90;3.80;;;;;;;;;;5073134;28;20833;-54
2021/12/24 15:55:01;;;;;;;5.47;5.07;;;;;;;;;;5073126;28;20451;-54
2021/12/24 15:57:27;;;;;;;3.63;3.53;;;;;;;;;;5073263;28;20414;-54
2021/12/24 15:59:52;;;;;;;4.80;4.50;;;;;;;;;;5073220;28;20418;-54
2021/12/24 16:02:18;;;;;;;4.30;4.10;;;;;;;;;;5072932;28;20411;-58
2021/12/24 16:04:44;;;;;;;4.50;4.30;;;;;;;;;;5073281;28;20485;-55
2021/12/24 16:07:10;;;;;;;5.63;5.23;;;;;;;;;;5071981;28;20835;-54
2021/12/24 16:09:36;;;;;;;7.00;6.30;;;;;;;;;;5072972;28;20399;-56
2021/12/24 16:12:03;;;;;;;4.67;4.40;;;;;;;;;;5072887;28;20402;-54
2021/12/24 16:14:29;;;;;;;6.33;5.77;;;;;;;;;;5072900;28;20899;-52
2021/12/24 16:16:55;;;;;;;5.27;4.83;;;;;;;;;;5073065;28;20502;-54
2021/12/24 16:19:22;;;;;;;4.97;4.47;;;;;;;;;;5072729;28;20529;-53
2021/12/24 16:21:49;;;;;;;3.90;3.70;;;;;;;;;;5072746;28;20413;-53
2021/12/24 16:24:15;;;;;;;6.50;5.90;;;;;;;;;;5072745;28;20413;-53